Terminal Aerodrome Forecast
Issued by NWS Kansas City/Pleasant Hill, MO

Home | Current Version | Previous Version | Text Only | Print | Product List | Glossary On
Versions: 1 2 3 4 5 6 7 8 9 10 11 12 13 14 15 16 17 18
366
FTUS43 KEAX 231720
TAFMCI
TAF
KMCI 231720Z 2318/2418 18012KT P6SM FEW200
     FM232300 15008KT P6SM FEW250
     FM241700 18013KT P6SM FEW140=

USA.gov is the U.S. government's official web portal to all federal, state and local government web resources and services.